WZZ2253 EPGD-BIKF
Flight info
| Callsign | WZZ2253 |
|---|---|
| Flight time | 3h 37m |
| Altitude | 36000 |
| Route | VAPOS N133 PENOR DCT TEMLI DCT BOMGU DCT IPTON/M078F360 DCT 63N010W DCT ING DCT NASBU NASBU4K |
| Aircraft | A321/M-SDE1E2E3FGIJ1J4RWXY/LB1 |
Departure
| Time | 2026-04-29 09:35 |
|---|---|
| Airport | Gdańsk Lech Wałęsa Airport (EPGD) |
Arrival
| Time | 2026-04-29 13:13 |
|---|---|
| Airport | Keflavik International Airport (BIKF) |
| Time | Latitude | Longitude | Altitude | Speed | Heading |
|---|---|---|---|---|---|
| 2026-04-29 09:08 | 54.38055 | 18.46452 | 451 ft | 0 kts | 26° |
| 2026-04-29 09:29 | 54.38056 | 18.46453 | 450 ft | 1 kts | 26° |
| 2026-04-29 09:29 | 54.38065 | 18.46460 | 450 ft | 2 kts | 25° |
| 2026-04-29 09:30 | 54.38087 | 18.46507 | 450 ft | 9 kts | 89° |
| 2026-04-29 09:30 | 54.38046 | 18.46617 | 452 ft | 6 kts | 172° |
| 2026-04-29 09:30 | 54.37982 | 18.46583 | 452 ft | 14 kts | 188° |
| 2026-04-29 09:30 | 54.37911 | 18.46720 | 453 ft | 19 kts | 111° |
| 2026-04-29 09:31 | 54.37858 | 18.46935 | 455 ft | 20 kts | 113° |
| 2026-04-29 09:31 | 54.37803 | 18.47159 | 457 ft | 21 kts | 113° |
| 2026-04-29 09:31 | 54.37745 | 18.47392 | 459 ft | 22 kts | 113° |
| 2026-04-29 09:31 | 54.37686 | 18.47633 | 460 ft | 22 kts | 112° |
| 2026-04-29 09:32 | 54.37625 | 18.47881 | 464 ft | 23 kts | 113° |
| 2026-04-29 09:32 | 54.37560 | 18.48136 | 463 ft | 24 kts | 113° |
| 2026-04-29 09:32 | 54.37496 | 18.48398 | 469 ft | 24 kts | 114° |
| 2026-04-29 09:32 | 54.37430 | 18.48665 | 468 ft | 25 kts | 112° |
| 2026-04-29 09:33 | 54.37363 | 18.48938 | 474 ft | 25 kts | 114° |
| 2026-04-29 09:33 | 54.37306 | 18.49168 | 475 ft | 19 kts | 113° |
| 2026-04-29 09:33 | 54.37259 | 18.49265 | 477 ft | 10 kts | 160° |
| 2026-04-29 09:33 | 54.37192 | 18.49221 | 471 ft | 13 kts | 227° |
| 2026-04-29 09:34 | 54.37159 | 18.49075 | 475 ft | 14 kts | 271° |
| 2026-04-29 09:34 | 54.37170 | 18.48996 | 474 ft | 0 kts | 291° |
| 2026-04-29 09:34 | 54.37250 | 18.48670 | 474 ft | 69 kts | 293° |
| 2026-04-29 09:35 | 54.37529 | 18.47542 | 463 ft | 136 kts | 292° |
| 2026-04-29 09:35 | 54.37962 | 18.45839 | 774 ft | 162 kts | 297° |
| 2026-04-29 09:35 | 54.38419 | 18.44033 | 1549 ft | 165 kts | 298° |
| 2026-04-29 09:35 | 54.38872 | 18.42189 | 2253 ft | 174 kts | 297° |
| 2026-04-29 09:36 | 54.39373 | 18.40156 | 2631 ft | 196 kts | 296° |
| 2026-04-29 09:36 | 54.39935 | 18.37872 | 2932 ft | 221 kts | 296° |
| 2026-04-29 09:36 | 54.40563 | 18.35321 | 3443 ft | 240 kts | 296° |
| 2026-04-29 09:36 | 54.41219 | 18.32650 | 4297 ft | 246 kts | 296° |
| 2026-04-29 09:37 | 54.41885 | 18.29925 | 5219 ft | 249 kts | 296° |
| 2026-04-29 09:37 | 54.42679 | 18.27275 | 6082 ft | 250 kts | 311° |
| 2026-04-29 09:37 | 54.43988 | 18.25345 | 6955 ft | 250 kts | 330° |
| 2026-04-29 09:37 | 54.45480 | 18.23774 | 7819 ft | 253 kts | 331° |
| 2026-04-29 09:38 | 54.46994 | 18.22188 | 8658 ft | 257 kts | 331° |
| 2026-04-29 09:38 | 54.48531 | 18.20573 | 9506 ft | 261 kts | 331° |
| 2026-04-29 09:38 | 54.50096 | 18.18920 | 10355 ft | 266 kts | 331° |
| 2026-04-29 09:38 | 54.51704 | 18.17218 | 10873 ft | 282 kts | 331° |
| 2026-04-29 09:39 | 54.53445 | 18.15378 | 11125 ft | 305 kts | 331° |
| 2026-04-29 09:39 | 54.55299 | 18.13415 | 11590 ft | 318 kts | 331° |
| 2026-04-29 09:39 | 54.57200 | 18.11396 | 12317 ft | 323 kts | 331° |
| 2026-04-29 09:39 | 54.59123 | 18.09346 | 13073 ft | 327 kts | 331° |
| 2026-04-29 09:40 | 54.60983 | 18.07016 | 13816 ft | 333 kts | 327° |
| 2026-04-29 09:40 | 54.62840 | 18.04587 | 14525 ft | 337 kts | 327° |
| 2026-04-29 09:40 | 54.64698 | 18.02148 | 15358 ft | 335 kts | 328° |
| 2026-04-29 09:40 | 54.66557 | 17.99705 | 16162 ft | 336 kts | 329° |
| 2026-04-29 09:41 | 54.68420 | 17.97260 | 16926 ft | 337 kts | 330° |
| 2026-04-29 09:41 | 54.70293 | 17.94807 | 17684 ft | 339 kts | 330° |
| 2026-04-29 09:41 | 54.72176 | 17.92343 | 18448 ft | 340 kts | 331° |
| 2026-04-29 09:41 | 54.74068 | 17.89863 | 19136 ft | 343 kts | 331° |
| 2026-04-29 09:42 | 54.75976 | 17.87359 | 19762 ft | 345 kts | 331° |
| 2026-04-29 09:42 | 54.77892 | 17.84840 | 20372 ft | 348 kts | 331° |
| 2026-04-29 09:42 | 54.79879 | 17.82475 | 20988 ft | 344 kts | 339° |
| 2026-04-29 09:42 | 54.81989 | 17.80720 | 21596 ft | 342 kts | 343° |
| 2026-04-29 09:43 | 54.84171 | 17.79012 | 22218 ft | 345 kts | 343° |
| 2026-04-29 09:43 | 54.86366 | 17.77298 | 22818 ft | 347 kts | 343° |
| 2026-04-29 09:43 | 54.88576 | 17.75569 | 23403 ft | 350 kts | 343° |
| 2026-04-29 09:43 | 54.90806 | 17.73818 | 23974 ft | 353 kts | 343° |
| 2026-04-29 09:44 | 54.93052 | 17.72051 | 24439 ft | 356 kts | 343° |
| 2026-04-29 09:44 | 54.95313 | 17.70263 | 24845 ft | 358 kts | 344° |
| 2026-04-29 09:44 | 54.97587 | 17.68463 | 25309 ft | 360 kts | 344° |
| 2026-04-29 09:44 | 54.99878 | 17.66674 | 25757 ft | 362 kts | 345° |
| 2026-04-29 09:45 | 55.02189 | 17.64902 | 26217 ft | 364 kts | 345° |
| 2026-04-29 09:45 | 55.04514 | 17.63137 | 26664 ft | 366 kts | 345° |
| 2026-04-29 09:45 | 55.06855 | 17.61369 | 27107 ft | 367 kts | 346° |
| 2026-04-29 09:45 | 55.09206 | 17.59591 | 27541 ft | 370 kts | 346° |
| 2026-04-29 09:46 | 55.11569 | 17.57791 | 27971 ft | 372 kts | 346° |
| 2026-04-29 09:46 | 55.13946 | 17.55969 | 28397 ft | 374 kts | 346° |
| 2026-04-29 09:46 | 55.16339 | 17.54124 | 28812 ft | 376 kts | 346° |
| 2026-04-29 09:46 | 55.18740 | 17.52270 | 29232 ft | 378 kts | 346° |
| 2026-04-29 09:47 | 55.21159 | 17.50406 | 29627 ft | 381 kts | 346° |
| 2026-04-29 09:47 | 55.23585 | 17.48519 | 30007 ft | 383 kts | 346° |
| 2026-04-29 09:47 | 55.26022 | 17.46587 | 30398 ft | 386 kts | 346° |
| 2026-04-29 09:47 | 55.28468 | 17.44628 | 30741 ft | 388 kts | 345° |
| 2026-04-29 09:48 | 55.30934 | 17.42647 | 31039 ft | 391 kts | 345° |
| 2026-04-29 09:48 | 55.33415 | 17.40656 | 31320 ft | 393 kts | 345° |
| 2026-04-29 09:48 | 55.35901 | 17.38664 | 31700 ft | 392 kts | 345° |
| 2026-04-29 09:48 | 55.38372 | 17.36681 | 32172 ft | 390 kts | 345° |
| 2026-04-29 09:49 | 55.40807 | 17.34729 | 32584 ft | 389 kts | 345° |
| 2026-04-29 09:49 | 55.43306 | 17.32730 | 32974 ft | 390 kts | 345° |
| 2026-04-29 09:49 | 55.45743 | 17.30780 | 33344 ft | 390 kts | 345° |
| 2026-04-29 09:49 | 55.48211 | 17.28801 | 33713 ft | 390 kts | 344° |
| 2026-04-29 09:50 | 55.50685 | 17.26811 | 34084 ft | 391 kts | 344° |
| 2026-04-29 09:50 | 55.53190 | 17.24791 | 34455 ft | 391 kts | 344° |
| 2026-04-29 09:50 | 55.55630 | 17.22816 | 34736 ft | 392 kts | 343° |
| 2026-04-29 09:50 | 55.58115 | 17.20803 | 34993 ft | 393 kts | 343° |
| 2026-04-29 09:51 | 55.60602 | 17.18786 | 35238 ft | 395 kts | 343° |
| 2026-04-29 09:51 | 55.63075 | 17.16622 | 35471 ft | 402 kts | 337° |
| 2026-04-29 09:51 | 55.65375 | 17.13692 | 35713 ft | 414 kts | 327° |
| 2026-04-29 09:51 | 55.67500 | 17.10202 | 35951 ft | 417 kts | 326° |
| 2026-04-29 09:52 | 55.69625 | 17.06679 | 36197 ft | 418 kts | 326° |
| 2026-04-29 09:52 | 55.71753 | 17.03147 | 36363 ft | 420 kts | 326° |
| 2026-04-29 09:52 | 55.76008 | 16.96092 | 36476 ft | 418 kts | 326° |
| 2026-04-29 09:53 | 55.80247 | 16.89034 | 36473 ft | 417 kts | 326° |
| 2026-04-29 09:53 | 55.84485 | 16.81975 | 36475 ft | 417 kts | 326° |
| 2026-04-29 09:54 | 55.88718 | 16.74917 | 36477 ft | 417 kts | 326° |
| 2026-04-29 09:54 | 55.92951 | 16.67831 | 36476 ft | 417 kts | 326° |
| 2026-04-29 09:55 | 55.97179 | 16.60712 | 36481 ft | 418 kts | 326° |
| 2026-04-29 09:55 | 56.01406 | 16.53576 | 36483 ft | 418 kts | 326° |
| 2026-04-29 09:56 | 56.05628 | 16.46429 | 36482 ft | 418 kts | 326° |
| 2026-04-29 09:56 | 56.09843 | 16.39272 | 36490 ft | 418 kts | 326° |
| 2026-04-29 09:57 | 56.14056 | 16.32085 | 36488 ft | 418 kts | 326° |
| 2026-04-29 09:57 | 56.18262 | 16.24884 | 36493 ft | 418 kts | 325° |
| 2026-04-29 09:58 | 56.22470 | 16.17673 | 36443 ft | 418 kts | 326° |
| 2026-04-29 09:58 | 56.26664 | 16.10465 | 36466 ft | 417 kts | 326° |
| 2026-04-29 09:59 | 56.30854 | 16.03229 | 36479 ft | 417 kts | 326° |
| 2026-04-29 09:59 | 56.35039 | 15.95997 | 36474 ft | 417 kts | 326° |
| 2026-04-29 10:00 | 56.39220 | 15.88755 | 36487 ft | 416 kts | 326° |
| 2026-04-29 10:00 | 56.43384 | 15.81498 | 36479 ft | 416 kts | 325° |
| 2026-04-29 10:01 | 56.47535 | 15.74232 | 36429 ft | 415 kts | 325° |
| 2026-04-29 10:01 | 56.51648 | 15.67007 | 36451 ft | 415 kts | 325° |
| 2026-04-29 10:02 | 56.55785 | 15.59732 | 36462 ft | 414 kts | 325° |
| 2026-04-29 10:02 | 56.59944 | 15.52407 | 36467 ft | 414 kts | 325° |
| 2026-04-29 10:03 | 56.64064 | 15.45105 | 36467 ft | 414 kts | 325° |
| 2026-04-29 10:03 | 56.68176 | 15.37769 | 36467 ft | 415 kts | 324° |
| 2026-04-29 10:04 | 56.71535 | 15.31539 | 36468 ft | 416 kts | 323° |
| 2026-04-29 10:04 | 56.76153 | 15.22660 | 36453 ft | 415 kts | 323° |
| 2026-04-29 10:05 | 56.80106 | 15.14999 | 36463 ft | 414 kts | 323° |
| 2026-04-29 10:05 | 56.84064 | 15.07382 | 36467 ft | 413 kts | 323° |
| 2026-04-29 10:06 | 56.87382 | 15.01011 | 36465 ft | 413 kts | 323° |
| 2026-04-29 10:06 | 56.91336 | 14.93390 | 36456 ft | 413 kts | 323° |
| 2026-04-29 10:07 | 56.95281 | 14.85763 | 36456 ft | 413 kts | 323° |
| 2026-04-29 10:07 | 56.99220 | 14.78107 | 36440 ft | 413 kts | 323° |
| 2026-04-29 10:08 | 57.03149 | 14.70427 | 36451 ft | 413 kts | 323° |
| 2026-04-29 10:08 | 57.07047 | 14.62799 | 36454 ft | 412 kts | 323° |
| 2026-04-29 10:09 | 57.10969 | 14.55103 | 36461 ft | 412 kts | 322° |
| 2026-04-29 10:09 | 57.14879 | 14.47403 | 36460 ft | 412 kts | 322° |
| 2026-04-29 10:10 | 57.18783 | 14.39685 | 36461 ft | 411 kts | 322° |
| 2026-04-29 10:10 | 57.22678 | 14.31953 | 36421 ft | 411 kts | 322° |
| 2026-04-29 10:11 | 57.26575 | 14.24206 | 36432 ft | 411 kts | 322° |
| 2026-04-29 10:11 | 57.30465 | 14.16453 | 36444 ft | 411 kts | 322° |
| 2026-04-29 10:12 | 57.34346 | 14.08680 | 36449 ft | 411 kts | 322° |
| 2026-04-29 10:12 | 57.38223 | 14.00892 | 36460 ft | 411 kts | 322° |
| 2026-04-29 10:13 | 57.42093 | 13.93075 | 36460 ft | 411 kts | 322° |
| 2026-04-29 10:13 | 57.45955 | 13.85253 | 36432 ft | 411 kts | 321° |
| 2026-04-29 10:14 | 57.49811 | 13.77432 | 36450 ft | 410 kts | 321° |
| 2026-04-29 10:14 | 57.53641 | 13.69646 | 36458 ft | 410 kts | 321° |
| 2026-04-29 10:15 | 57.57512 | 13.61740 | 36461 ft | 410 kts | 321° |
| 2026-04-29 10:15 | 57.61351 | 13.53866 | 36469 ft | 410 kts | 321° |
| 2026-04-29 10:16 | 57.65182 | 13.45985 | 36471 ft | 410 kts | 321° |
| 2026-04-29 10:16 | 57.69013 | 13.38067 | 36428 ft | 410 kts | 320° |
| 2026-04-29 10:17 | 57.72804 | 13.30200 | 36450 ft | 410 kts | 320° |
| 2026-04-29 10:17 | 57.76618 | 13.22278 | 36460 ft | 410 kts | 320° |
| 2026-04-29 10:18 | 57.80430 | 13.14335 | 36474 ft | 410 kts | 320° |
| 2026-04-29 10:18 | 57.84234 | 13.06385 | 36479 ft | 409 kts | 320° |
| 2026-04-29 10:19 | 57.88024 | 12.98420 | 36484 ft | 409 kts | 320° |
| 2026-04-29 10:19 | 57.91809 | 12.90438 | 36434 ft | 409 kts | 320° |
| 2026-04-29 10:20 | 57.95590 | 12.82436 | 36452 ft | 409 kts | 320° |
| 2026-04-29 10:20 | 57.99370 | 12.74426 | 36464 ft | 409 kts | 320° |
| 2026-04-29 10:21 | 58.03152 | 12.66384 | 36473 ft | 410 kts | 319° |
| 2026-04-29 10:21 | 58.06930 | 12.58327 | 36484 ft | 410 kts | 319° |
| 2026-04-29 10:22 | 58.10706 | 12.50231 | 36485 ft | 410 kts | 319° |
| 2026-04-29 10:22 | 58.14469 | 12.42123 | 36486 ft | 411 kts | 319° |
| 2026-04-29 10:23 | 58.18231 | 12.33994 | 36453 ft | 411 kts | 319° |
| 2026-04-29 10:23 | 58.21996 | 12.25836 | 36457 ft | 411 kts | 319° |
| 2026-04-29 10:24 | 58.25765 | 12.17640 | 36480 ft | 412 kts | 319° |
| 2026-04-29 10:24 | 58.29527 | 12.09431 | 36483 ft | 412 kts | 319° |
| 2026-04-29 10:25 | 58.33289 | 12.01197 | 36488 ft | 412 kts | 319° |
| 2026-04-29 10:25 | 58.37024 | 11.93003 | 36489 ft | 412 kts | 319° |
| 2026-04-29 10:26 | 58.40803 | 11.84676 | 36487 ft | 413 kts | 319° |
| 2026-04-29 10:26 | 58.44525 | 11.76445 | 36495 ft | 413 kts | 318° |
| 2026-04-29 10:27 | 58.50131 | 11.63965 | 36493 ft | 413 kts | 318° |
| 2026-04-29 10:28 | 58.53860 | 11.55619 | 36489 ft | 412 kts | 318° |
| 2026-04-29 10:28 | 58.57585 | 11.47292 | 36492 ft | 412 kts | 318° |
| 2026-04-29 10:29 | 58.61302 | 11.38935 | 36495 ft | 412 kts | 318° |
| 2026-04-29 10:29 | 58.65014 | 11.30557 | 36459 ft | 412 kts | 317° |
| 2026-04-29 10:30 | 58.68725 | 11.22158 | 36467 ft | 413 kts | 317° |
| 2026-04-29 10:30 | 58.72439 | 11.13723 | 36477 ft | 413 kts | 317° |
| 2026-04-29 10:31 | 58.76156 | 11.05261 | 36486 ft | 414 kts | 317° |
| 2026-04-29 10:31 | 58.79866 | 10.96757 | 36488 ft | 414 kts | 317° |
| 2026-04-29 10:32 | 58.83566 | 10.88254 | 36490 ft | 414 kts | 317° |
| 2026-04-29 10:32 | 58.87263 | 10.79710 | 36451 ft | 414 kts | 316° |
| 2026-04-29 10:33 | 58.90915 | 10.71095 | 36468 ft | 416 kts | 314° |
| 2026-04-29 10:33 | 58.94341 | 10.62033 | 36473 ft | 418 kts | 311° |
| 2026-04-29 10:34 | 58.97614 | 10.52706 | 36478 ft | 419 kts | 310° |
| 2026-04-29 10:34 | 59.00857 | 10.43400 | 36483 ft | 419 kts | 311° |
| 2026-04-29 10:35 | 59.04158 | 10.34083 | 36482 ft | 419 kts | 311° |
| 2026-04-29 10:35 | 59.07492 | 10.24707 | 36439 ft | 419 kts | 311° |
| 2026-04-29 10:36 | 59.10791 | 10.15372 | 36445 ft | 419 kts | 310° |
| 2026-04-29 10:36 | 59.14068 | 10.06061 | 36465 ft | 420 kts | 310° |
| 2026-04-29 10:37 | 59.17365 | 9.96656 | 36469 ft | 420 kts | 310° |
| 2026-04-29 10:37 | 59.20651 | 9.87223 | 36468 ft | 421 kts | 310° |
| 2026-04-29 10:38 | 59.23932 | 9.77762 | 36459 ft | 421 kts | 310° |
| 2026-04-29 10:38 | 59.27208 | 9.68299 | 36422 ft | 420 kts | 310° |
| 2026-04-29 10:39 | 59.30472 | 9.58802 | 36427 ft | 420 kts | 309° |
| 2026-04-29 10:39 | 59.33729 | 9.49308 | 36430 ft | 420 kts | 310° |
| 2026-04-29 10:40 | 59.36987 | 9.39794 | 36438 ft | 420 kts | 309° |
| 2026-04-29 10:40 | 59.40231 | 9.30260 | 36424 ft | 420 kts | 309° |
| 2026-04-29 10:41 | 59.43466 | 9.20698 | 36421 ft | 420 kts | 309° |
| 2026-04-29 10:41 | 59.46708 | 9.11124 | 36423 ft | 420 kts | 309° |
| 2026-04-29 10:42 | 59.49939 | 9.01527 | 36404 ft | 421 kts | 309° |
| 2026-04-29 10:42 | 59.53159 | 8.91888 | 36410 ft | 422 kts | 309° |
| 2026-04-29 10:43 | 59.56360 | 8.82288 | 36414 ft | 422 kts | 308° |
| 2026-04-29 10:43 | 59.59576 | 8.72612 | 36420 ft | 422 kts | 308° |
| 2026-04-29 10:44 | 59.62780 | 8.62927 | 36432 ft | 420 kts | 308° |
| 2026-04-29 10:44 | 59.65969 | 8.53242 | 36436 ft | 420 kts | 308° |
| 2026-04-29 10:45 | 59.69146 | 8.43540 | 36417 ft | 420 kts | 308° |
| 2026-04-29 10:45 | 59.72321 | 8.33825 | 36450 ft | 421 kts | 307° |
| 2026-04-29 10:46 | 59.75493 | 8.24071 | 36447 ft | 421 kts | 307° |
| 2026-04-29 10:46 | 59.78662 | 8.14291 | 36469 ft | 421 kts | 307° |
| 2026-04-29 10:47 | 59.81824 | 8.04497 | 36478 ft | 421 kts | 307° |
| 2026-04-29 10:47 | 59.84979 | 7.94673 | 36479 ft | 421 kts | 307° |
| 2026-04-29 10:48 | 59.88140 | 7.84771 | 36467 ft | 422 kts | 307° |
| 2026-04-29 10:48 | 59.91263 | 7.74971 | 36470 ft | 422 kts | 307° |
| 2026-04-29 10:49 | 59.94401 | 7.65074 | 36485 ft | 422 kts | 306° |
| 2026-04-29 10:49 | 59.97534 | 7.55149 | 36496 ft | 423 kts | 306° |
| 2026-04-29 10:50 | 60.00670 | 7.45204 | 36503 ft | 423 kts | 306° |
| 2026-04-29 10:50 | 60.03787 | 7.35250 | 36506 ft | 422 kts | 306° |
| 2026-04-29 10:51 | 60.06893 | 7.25282 | 36487 ft | 422 kts | 306° |
| 2026-04-29 10:51 | 60.09996 | 7.15286 | 36486 ft | 422 kts | 305° |
| 2026-04-29 10:52 | 60.13087 | 7.05272 | 36486 ft | 422 kts | 305° |
| 2026-04-29 10:52 | 60.16173 | 6.95224 | 36504 ft | 423 kts | 305° |
| 2026-04-29 10:53 | 60.18737 | 6.86874 | 36494 ft | 423 kts | 305° |
| 2026-04-29 10:53 | 60.21814 | 6.76804 | 36492 ft | 423 kts | 305° |
| 2026-04-29 10:54 | 60.24883 | 6.66712 | 36437 ft | 423 kts | 304° |
| 2026-04-29 10:54 | 60.27953 | 6.56587 | 36442 ft | 423 kts | 304° |
| 2026-04-29 10:55 | 60.31009 | 6.46433 | 36467 ft | 424 kts | 303° |
| 2026-04-29 10:55 | 60.34060 | 6.36245 | 36480 ft | 424 kts | 303° |
| 2026-04-29 10:56 | 60.37096 | 6.26060 | 36484 ft | 423 kts | 303° |
| 2026-04-29 10:56 | 60.40129 | 6.15879 | 36486 ft | 422 kts | 303° |
| 2026-04-29 10:57 | 60.43150 | 6.05683 | 36481 ft | 422 kts | 303° |
| 2026-04-29 10:57 | 60.46163 | 5.95459 | 36483 ft | 423 kts | 303° |
| 2026-04-29 10:58 | 60.49166 | 5.85220 | 36498 ft | 422 kts | 303° |
| 2026-04-29 10:58 | 60.52167 | 5.74979 | 36492 ft | 422 kts | 303° |
| 2026-04-29 10:59 | 60.55156 | 5.64706 | 36504 ft | 422 kts | 303° |
| 2026-04-29 10:59 | 60.58134 | 5.54401 | 36507 ft | 422 kts | 303° |
| 2026-04-29 11:00 | 60.61088 | 5.44161 | 36505 ft | 422 kts | 302° |
| 2026-04-29 11:00 | 60.64048 | 5.33836 | 36508 ft | 423 kts | 302° |
| 2026-04-29 11:01 | 60.67015 | 5.23475 | 36523 ft | 423 kts | 302° |
| 2026-04-29 11:01 | 60.69965 | 5.13096 | 36536 ft | 422 kts | 302° |
| 2026-04-29 11:02 | 60.72901 | 5.02709 | 36537 ft | 422 kts | 302° |
| 2026-04-29 11:02 | 60.75826 | 4.92312 | 36534 ft | 422 kts | 301° |
| 2026-04-29 11:03 | 60.78742 | 4.81889 | 36541 ft | 422 kts | 301° |
| 2026-04-29 11:03 | 60.81659 | 4.71462 | 36528 ft | 422 kts | 301° |
| 2026-04-29 11:04 | 60.84571 | 4.60996 | 36530 ft | 423 kts | 301° |
| 2026-04-29 11:04 | 60.87473 | 4.50501 | 36535 ft | 423 kts | 301° |
| 2026-04-29 11:05 | 60.90374 | 4.39966 | 36533 ft | 423 kts | 301° |
| 2026-04-29 11:05 | 60.93256 | 4.29410 | 36536 ft | 424 kts | 300° |
| 2026-04-29 11:06 | 60.96139 | 4.18838 | 36540 ft | 424 kts | 300° |
| 2026-04-29 11:06 | 60.99023 | 4.08260 | 36536 ft | 424 kts | 300° |
| 2026-04-29 11:07 | 61.01895 | 3.97646 | 36537 ft | 424 kts | 300° |
| 2026-04-29 11:07 | 61.04746 | 3.87019 | 36539 ft | 423 kts | 300° |
| 2026-04-29 11:08 | 61.07591 | 3.76378 | 36541 ft | 423 kts | 300° |
| 2026-04-29 11:08 | 61.10432 | 3.65722 | 36538 ft | 423 kts | 300° |
| 2026-04-29 11:09 | 61.13244 | 3.55123 | 36541 ft | 423 kts | 299° |
| 2026-04-29 11:09 | 61.16065 | 3.44430 | 36524 ft | 423 kts | 299° |
| 2026-04-29 11:10 | 61.18869 | 3.33728 | 36532 ft | 423 kts | 298° |
| 2026-04-29 11:10 | 61.21674 | 3.22994 | 36527 ft | 423 kts | 298° |
| 2026-04-29 11:11 | 61.24474 | 3.12251 | 36528 ft | 423 kts | 298° |
| 2026-04-29 11:11 | 61.27266 | 3.01495 | 36518 ft | 423 kts | 298° |
| 2026-04-29 11:12 | 61.30044 | 2.90718 | 36524 ft | 423 kts | 298° |
| 2026-04-29 11:12 | 61.32808 | 2.79920 | 36530 ft | 422 kts | 298° |
| 2026-04-29 11:13 | 61.35557 | 2.69138 | 36509 ft | 421 kts | 297° |
| 2026-04-29 11:13 | 61.38302 | 2.58350 | 36512 ft | 421 kts | 297° |
| 2026-04-29 11:14 | 61.41030 | 2.47546 | 36505 ft | 421 kts | 297° |
| 2026-04-29 11:14 | 61.43746 | 2.36726 | 36485 ft | 420 kts | 297° |
| 2026-04-29 11:15 | 61.46454 | 2.25899 | 36488 ft | 420 kts | 297° |
| 2026-04-29 11:15 | 61.49155 | 2.15056 | 36506 ft | 420 kts | 297° |
| 2026-04-29 11:16 | 61.51833 | 2.04264 | 36497 ft | 420 kts | 297° |
| 2026-04-29 11:16 | 61.54518 | 1.93370 | 36492 ft | 421 kts | 296° |
| 2026-04-29 11:17 | 61.57197 | 1.82441 | 36490 ft | 421 kts | 296° |
| 2026-04-29 11:17 | 61.59865 | 1.71490 | 36498 ft | 422 kts | 296° |
| 2026-04-29 11:18 | 61.62533 | 1.60509 | 36492 ft | 422 kts | 296° |
| 2026-04-29 11:18 | 61.65196 | 1.49527 | 36494 ft | 422 kts | 296° |
| 2026-04-29 11:19 | 61.67842 | 1.38510 | 36486 ft | 422 kts | 296° |
| 2026-04-29 11:19 | 61.70481 | 1.27470 | 36485 ft | 422 kts | 296° |
| 2026-04-29 11:20 | 61.73113 | 1.16401 | 36483 ft | 422 kts | 296° |
| 2026-04-29 11:20 | 61.75744 | 1.05304 | 36478 ft | 423 kts | 296° |
| 2026-04-29 11:21 | 61.78358 | 0.94183 | 36480 ft | 423 kts | 295° |
| 2026-04-29 11:21 | 61.80960 | 0.83044 | 36486 ft | 423 kts | 295° |
| 2026-04-29 11:22 | 61.83561 | 0.71896 | 36486 ft | 423 kts | 295° |
| 2026-04-29 11:22 | 61.86154 | 0.60729 | 36479 ft | 423 kts | 295° |
| 2026-04-29 11:23 | 61.88741 | 0.49531 | 36472 ft | 423 kts | 295° |
| 2026-04-29 11:23 | 61.91317 | 0.38319 | 36474 ft | 423 kts | 295° |
| 2026-04-29 11:24 | 61.93878 | 0.27075 | 36485 ft | 422 kts | 294° |
| 2026-04-29 11:24 | 61.96430 | 0.15851 | 36482 ft | 421 kts | 294° |
| 2026-04-29 11:25 | 61.98963 | 0.04652 | 36480 ft | 420 kts | 294° |
| 2026-04-29 11:25 | 62.00978 | -0.06952 | 36474 ft | 418 kts | 285° |
| 2026-04-29 11:26 | 62.03450 | -0.24740 | 36481 ft | 418 kts | 285° |
| 2026-04-29 11:26 | 62.05090 | -0.36617 | 36474 ft | 417 kts | 285° |
| 2026-04-29 11:27 | 62.06717 | -0.48490 | 36470 ft | 417 kts | 285° |
| 2026-04-29 11:27 | 62.08326 | -0.60376 | 36466 ft | 417 kts | 284° |
| 2026-04-29 11:28 | 62.09912 | -0.72198 | 36465 ft | 417 kts | 284° |
| 2026-04-29 11:28 | 62.11510 | -0.84177 | 36464 ft | 417 kts | 284° |
| 2026-04-29 11:29 | 62.13080 | -0.96016 | 36461 ft | 417 kts | 284° |
| 2026-04-29 11:29 | 62.14651 | -1.07936 | 36460 ft | 417 kts | 284° |
| 2026-04-29 11:30 | 62.16210 | -1.19883 | 36447 ft | 417 kts | 284° |
| 2026-04-29 11:30 | 62.17761 | -1.31830 | 36447 ft | 417 kts | 284° |
| 2026-04-29 11:31 | 62.19299 | -1.43785 | 36449 ft | 417 kts | 284° |
| 2026-04-29 11:31 | 62.20817 | -1.55762 | 36443 ft | 416 kts | 283° |
| 2026-04-29 11:32 | 62.22336 | -1.67735 | 36462 ft | 416 kts | 283° |
| 2026-04-29 11:32 | 62.23848 | -1.79698 | 36457 ft | 415 kts | 283° |
| 2026-04-29 11:33 | 62.25340 | -1.91625 | 36450 ft | 413 kts | 283° |
| 2026-04-29 11:33 | 62.26808 | -2.03526 | 36444 ft | 413 kts | 283° |
| 2026-04-29 11:34 | 62.28271 | -2.15445 | 36434 ft | 412 kts | 283° |
| 2026-04-29 11:34 | 62.29716 | -2.27360 | 36434 ft | 412 kts | 282° |
| 2026-04-29 11:35 | 62.31157 | -2.39283 | 36428 ft | 412 kts | 282° |
| 2026-04-29 11:35 | 62.32579 | -2.51210 | 36427 ft | 412 kts | 282° |
| 2026-04-29 11:36 | 62.33998 | -2.63159 | 36425 ft | 412 kts | 282° |
| 2026-04-29 11:36 | 62.35410 | -2.75109 | 36424 ft | 412 kts | 282° |
| 2026-04-29 11:37 | 62.36810 | -2.87079 | 36422 ft | 412 kts | 282° |
| 2026-04-29 11:37 | 62.38194 | -2.99037 | 36414 ft | 412 kts | 281° |
| 2026-04-29 11:38 | 62.39573 | -3.11030 | 36414 ft | 412 kts | 281° |
| 2026-04-29 11:38 | 62.40935 | -3.23019 | 36405 ft | 412 kts | 281° |
| 2026-04-29 11:39 | 62.42294 | -3.35045 | 36404 ft | 412 kts | 281° |
| 2026-04-29 11:39 | 62.43646 | -3.47064 | 36404 ft | 412 kts | 281° |
| 2026-04-29 11:40 | 62.44758 | -3.57056 | 36401 ft | 412 kts | 281° |
| 2026-04-29 11:40 | 62.46082 | -3.69097 | 36407 ft | 412 kts | 281° |
| 2026-04-29 11:41 | 62.47401 | -3.81137 | 36420 ft | 412 kts | 281° |
| 2026-04-29 11:41 | 62.48715 | -3.93174 | 36412 ft | 411 kts | 280° |
| 2026-04-29 11:42 | 62.50008 | -4.05179 | 36402 ft | 409 kts | 280° |
| 2026-04-29 11:42 | 62.51279 | -4.17170 | 36396 ft | 408 kts | 280° |
| 2026-04-29 11:43 | 62.52530 | -4.29083 | 36391 ft | 408 kts | 280° |
| 2026-04-29 11:43 | 62.53784 | -4.41068 | 36394 ft | 408 kts | 280° |
| 2026-04-29 11:44 | 62.55030 | -4.53052 | 36383 ft | 408 kts | 279° |
| 2026-04-29 11:44 | 62.56259 | -4.65043 | 36382 ft | 407 kts | 279° |
| 2026-04-29 11:45 | 62.57481 | -4.77046 | 36370 ft | 407 kts | 279° |
| 2026-04-29 11:45 | 62.58692 | -4.89051 | 36371 ft | 407 kts | 279° |
| 2026-04-29 11:46 | 62.59889 | -5.01076 | 36370 ft | 407 kts | 279° |
| 2026-04-29 11:46 | 62.61080 | -5.13104 | 36361 ft | 408 kts | 279° |
| 2026-04-29 11:47 | 62.62260 | -5.25140 | 36376 ft | 407 kts | 278° |
| 2026-04-29 11:47 | 62.63425 | -5.37167 | 36365 ft | 406 kts | 278° |
| 2026-04-29 11:48 | 62.64582 | -5.49175 | 36361 ft | 405 kts | 278° |
| 2026-04-29 11:48 | 62.65727 | -5.61159 | 36354 ft | 405 kts | 278° |
| 2026-04-29 11:49 | 62.66858 | -5.73144 | 36341 ft | 404 kts | 278° |
| 2026-04-29 11:49 | 62.67973 | -5.85137 | 36338 ft | 404 kts | 278° |
| 2026-04-29 11:50 | 62.69082 | -5.97128 | 36347 ft | 404 kts | 277° |
| 2026-04-29 11:50 | 62.70177 | -6.09106 | 36328 ft | 401 kts | 277° |
| 2026-04-29 11:51 | 62.71246 | -6.20866 | 36315 ft | 398 kts | 277° |
| 2026-04-29 11:51 | 62.72307 | -6.32692 | 36311 ft | 398 kts | 277° |
| 2026-04-29 11:52 | 62.73360 | -6.44546 | 36316 ft | 398 kts | 277° |
| 2026-04-29 11:52 | 62.74409 | -6.56424 | 36309 ft | 399 kts | 277° |
| 2026-04-29 11:53 | 62.75438 | -6.68312 | 36316 ft | 399 kts | 276° |
| 2026-04-29 11:53 | 62.76460 | -6.80231 | 36309 ft | 400 kts | 276° |
| 2026-04-29 11:54 | 62.77475 | -6.92174 | 36309 ft | 400 kts | 276° |
| 2026-04-29 11:54 | 62.78489 | -7.04140 | 36311 ft | 401 kts | 276° |
| 2026-04-29 11:55 | 62.79489 | -7.16133 | 36306 ft | 401 kts | 276° |
| 2026-04-29 11:55 | 62.80477 | -7.28139 | 36309 ft | 402 kts | 276° |
| 2026-04-29 11:56 | 62.81458 | -7.40167 | 36301 ft | 402 kts | 276° |
| 2026-04-29 11:56 | 62.82419 | -7.52122 | 36315 ft | 402 kts | 275° |
| 2026-04-29 11:57 | 62.83382 | -7.64174 | 36308 ft | 402 kts | 275° |
| 2026-04-29 11:57 | 62.84341 | -7.76221 | 36304 ft | 402 kts | 275° |
| 2026-04-29 11:58 | 62.85275 | -7.88273 | 36302 ft | 401 kts | 275° |
| 2026-04-29 11:58 | 62.86200 | -8.00322 | 36301 ft | 401 kts | 275° |
| 2026-04-29 11:59 | 62.87121 | -8.12375 | 36292 ft | 401 kts | 275° |
| 2026-04-29 11:59 | 62.88025 | -8.24437 | 36291 ft | 401 kts | 275° |
| 2026-04-29 12:00 | 62.88926 | -8.36486 | 36280 ft | 398 kts | 274° |
| 2026-04-29 12:00 | 62.89805 | -8.48391 | 36266 ft | 395 kts | 274° |
| 2026-04-29 12:01 | 62.90663 | -8.60285 | 36264 ft | 395 kts | 274° |
| 2026-04-29 12:01 | 62.91506 | -8.72200 | 36257 ft | 395 kts | 274° |
| 2026-04-29 12:02 | 62.92347 | -8.84111 | 36251 ft | 395 kts | 274° |
| 2026-04-29 12:02 | 62.93190 | -8.96044 | 36264 ft | 396 kts | 274° |
| 2026-04-29 12:03 | 62.94012 | -9.07983 | 36280 ft | 396 kts | 273° |
| 2026-04-29 12:03 | 62.94819 | -9.19832 | 36280 ft | 395 kts | 273° |
| 2026-04-29 12:04 | 62.95620 | -9.31757 | 36253 ft | 394 kts | 273° |
| 2026-04-29 12:04 | 62.96411 | -9.43669 | 36244 ft | 394 kts | 273° |
| 2026-04-29 12:05 | 62.97190 | -9.55585 | 36241 ft | 393 kts | 273° |
| 2026-04-29 12:05 | 62.97961 | -9.67478 | 36235 ft | 393 kts | 272° |
| 2026-04-29 12:06 | 62.98723 | -9.79392 | 36260 ft | 393 kts | 272° |
| 2026-04-29 12:06 | 62.99468 | -9.91300 | 36248 ft | 392 kts | 272° |
| 2026-04-29 12:07 | 63.00459 | -10.03121 | 36232 ft | 398 kts | 281° |
| 2026-04-29 12:07 | 63.02176 | -10.14719 | 36220 ft | 399 kts | 281° |
| 2026-04-29 12:08 | 63.03886 | -10.26338 | 36219 ft | 398 kts | 281° |
| 2026-04-29 12:08 | 63.05577 | -10.37978 | 36260 ft | 398 kts | 281° |
| 2026-04-29 12:09 | 63.07249 | -10.49533 | 36193 ft | 393 kts | 280° |
| 2026-04-29 12:09 | 63.08896 | -10.61036 | 36208 ft | 393 kts | 279° |
| 2026-04-29 12:10 | 63.10522 | -10.72491 | 36188 ft | 394 kts | 279° |
| 2026-04-29 12:10 | 63.12167 | -10.84125 | 36184 ft | 395 kts | 279° |
| 2026-04-29 12:11 | 63.13789 | -10.95647 | 36186 ft | 395 kts | 279° |
| 2026-04-29 12:11 | 63.15408 | -11.07256 | 36193 ft | 395 kts | 279° |
| 2026-04-29 12:12 | 63.17023 | -11.18875 | 36182 ft | 395 kts | 279° |
| 2026-04-29 12:12 | 63.18626 | -11.30512 | 36170 ft | 395 kts | 279° |
| 2026-04-29 12:13 | 63.20216 | -11.42140 | 36205 ft | 394 kts | 279° |
| 2026-04-29 12:13 | 63.21796 | -11.53766 | 36171 ft | 393 kts | 278° |
| 2026-04-29 12:14 | 63.23360 | -11.65376 | 36151 ft | 393 kts | 278° |
| 2026-04-29 12:14 | 63.24910 | -11.77002 | 36150 ft | 393 kts | 278° |
| 2026-04-29 12:15 | 63.26454 | -11.88643 | 36146 ft | 391 kts | 277° |
| 2026-04-29 12:15 | 63.27983 | -12.00224 | 36135 ft | 391 kts | 277° |
| 2026-04-29 12:16 | 63.29498 | -12.11822 | 36134 ft | 391 kts | 277° |
| 2026-04-29 12:16 | 63.31004 | -12.23449 | 36137 ft | 391 kts | 277° |
| 2026-04-29 12:17 | 63.32511 | -12.35068 | 36137 ft | 390 kts | 277° |
| 2026-04-29 12:17 | 63.34004 | -12.46691 | 36116 ft | 390 kts | 276° |
| 2026-04-29 12:18 | 63.35481 | -12.58298 | 36115 ft | 389 kts | 276° |
| 2026-04-29 12:18 | 63.36939 | -12.69910 | 36101 ft | 389 kts | 276° |
| 2026-04-29 12:19 | 63.38394 | -12.81553 | 36107 ft | 390 kts | 276° |
| 2026-04-29 12:19 | 63.39849 | -12.93209 | 36108 ft | 391 kts | 276° |
| 2026-04-29 12:20 | 63.41288 | -13.04917 | 36107 ft | 391 kts | 276° |
| 2026-04-29 12:20 | 63.42717 | -13.16620 | 36137 ft | 391 kts | 275° |
| 2026-04-29 12:21 | 63.44134 | -13.28342 | 36117 ft | 390 kts | 275° |
| 2026-04-29 12:21 | 63.45545 | -13.39955 | 36082 ft | 386 kts | 275° |
| 2026-04-29 12:22 | 63.46931 | -13.51539 | 36072 ft | 386 kts | 275° |
| 2026-04-29 12:22 | 63.48311 | -13.63146 | 36062 ft | 387 kts | 275° |
| 2026-04-29 12:23 | 63.49672 | -13.74718 | 36064 ft | 387 kts | 274° |
| 2026-04-29 12:23 | 63.51035 | -13.86389 | 36069 ft | 388 kts | 274° |
| 2026-04-29 12:24 | 63.52386 | -13.98079 | 36077 ft | 388 kts | 274° |
| 2026-04-29 12:24 | 63.53727 | -14.09738 | 36060 ft | 385 kts | 274° |
| 2026-04-29 12:25 | 63.55060 | -14.21390 | 36055 ft | 386 kts | 274° |
| 2026-04-29 12:26 | 63.57040 | -14.38929 | 36056 ft | 387 kts | 273° |
| 2026-04-29 12:26 | 63.58349 | -14.50644 | 36061 ft | 387 kts | 273° |
| 2026-04-29 12:27 | 63.59649 | -14.62365 | 36065 ft | 387 kts | 273° |
| 2026-04-29 12:27 | 63.60943 | -14.74121 | 36096 ft | 387 kts | 273° |
| 2026-04-29 12:28 | 63.62220 | -14.85828 | 36067 ft | 385 kts | 272° |
| 2026-04-29 12:28 | 63.63482 | -14.97526 | 36060 ft | 385 kts | 272° |
| 2026-04-29 12:29 | 63.64739 | -15.09254 | 36063 ft | 386 kts | 272° |
| 2026-04-29 12:29 | 63.65989 | -15.21015 | 36063 ft | 386 kts | 272° |
| 2026-04-29 12:30 | 63.67021 | -15.30803 | 36062 ft | 386 kts | 272° |
| 2026-04-29 12:30 | 63.68251 | -15.42578 | 36063 ft | 386 kts | 272° |
| 2026-04-29 12:31 | 63.69470 | -15.54353 | 36063 ft | 386 kts | 272° |
| 2026-04-29 12:31 | 63.70683 | -15.66141 | 36076 ft | 386 kts | 272° |
| 2026-04-29 12:32 | 63.71883 | -15.77932 | 36069 ft | 385 kts | 271° |
| 2026-04-29 12:32 | 63.73073 | -15.89714 | 36060 ft | 385 kts | 271° |
| 2026-04-29 12:33 | 63.74254 | -16.01515 | 36055 ft | 386 kts | 271° |
| 2026-04-29 12:33 | 63.75428 | -16.13336 | 36050 ft | 386 kts | 271° |
| 2026-04-29 12:34 | 63.76596 | -16.25165 | 36055 ft | 386 kts | 271° |
| 2026-04-29 12:34 | 63.77745 | -16.37004 | 36065 ft | 385 kts | 271° |
| 2026-04-29 12:35 | 63.78883 | -16.48847 | 36063 ft | 385 kts | 271° |
| 2026-04-29 12:35 | 63.80014 | -16.60689 | 36059 ft | 385 kts | 271° |
| 2026-04-29 12:36 | 63.80755 | -16.72444 | 36062 ft | 378 kts | 266° |
| 2026-04-29 12:36 | 63.81361 | -16.84342 | 36065 ft | 378 kts | 266° |
| 2026-04-29 12:37 | 63.81951 | -16.96163 | 36058 ft | 378 kts | 266° |
| 2026-04-29 12:37 | 63.82524 | -17.07901 | 36061 ft | 378 kts | 265° |
| 2026-04-29 12:38 | 63.83094 | -17.19729 | 36073 ft | 377 kts | 265° |
| 2026-04-29 12:38 | 63.83654 | -17.31550 | 36069 ft | 377 kts | 265° |
| 2026-04-29 12:39 | 63.84211 | -17.43372 | 36061 ft | 376 kts | 265° |
| 2026-04-29 12:39 | 63.84751 | -17.55121 | 36051 ft | 375 kts | 265° |
| 2026-04-29 12:40 | 63.85276 | -17.66895 | 36056 ft | 375 kts | 265° |
| 2026-04-29 12:40 | 63.85787 | -17.78675 | 36049 ft | 376 kts | 265° |
| 2026-04-29 12:40 | 63.86042 | -17.84578 | 35830 ft | 376 kts | 265° |
| 2026-04-29 12:41 | 63.86296 | -17.90456 | 35448 ft | 374 kts | 264° |
| 2026-04-29 12:41 | 63.86550 | -17.96316 | 35104 ft | 372 kts | 264° |
| 2026-04-29 12:41 | 63.86802 | -18.02133 | 34717 ft | 369 kts | 264° |
| 2026-04-29 12:41 | 63.87047 | -18.07880 | 34307 ft | 365 kts | 263° |
| 2026-04-29 12:42 | 63.87288 | -18.13592 | 33890 ft | 361 kts | 263° |
| 2026-04-29 12:42 | 63.87521 | -18.19220 | 33423 ft | 357 kts | 262° |
| 2026-04-29 12:42 | 63.87746 | -18.24717 | 32993 ft | 352 kts | 262° |
| 2026-04-29 12:42 | 63.87969 | -18.30222 | 32543 ft | 348 kts | 261° |
| 2026-04-29 12:43 | 63.88187 | -18.35663 | 32091 ft | 345 kts | 261° |
| 2026-04-29 12:43 | 63.88398 | -18.41054 | 31641 ft | 341 kts | 261° |
| 2026-04-29 12:43 | 63.88603 | -18.46392 | 31208 ft | 338 kts | 261° |
| 2026-04-29 12:43 | 63.88805 | -18.51687 | 30789 ft | 336 kts | 261° |
| 2026-04-29 12:44 | 63.89007 | -18.56940 | 30356 ft | 333 kts | 260° |
| 2026-04-29 12:44 | 63.89203 | -18.62152 | 29920 ft | 330 kts | 260° |
| 2026-04-29 12:44 | 63.89389 | -18.67165 | 29446 ft | 328 kts | 260° |
| 2026-04-29 12:44 | 63.89577 | -18.72380 | 28963 ft | 333 kts | 260° |
| 2026-04-29 12:45 | 63.89765 | -18.77585 | 28485 ft | 329 kts | 260° |
| 2026-04-29 12:45 | 63.89956 | -18.82716 | 28018 ft | 325 kts | 260° |
| 2026-04-29 12:45 | 63.90148 | -18.87795 | 27560 ft | 321 kts | 260° |
| 2026-04-29 12:45 | 63.90332 | -18.92819 | 27121 ft | 317 kts | 260° |
| 2026-04-29 12:46 | 63.90510 | -18.97786 | 26754 ft | 314 kts | 260° |
| 2026-04-29 12:46 | 63.90683 | -19.02703 | 26405 ft | 311 kts | 260° |
| 2026-04-29 12:46 | 63.90850 | -19.07533 | 26128 ft | 310 kts | 259° |
| 2026-04-29 12:46 | 63.91015 | -19.12403 | 25872 ft | 309 kts | 259° |
| 2026-04-29 12:47 | 63.91177 | -19.17269 | 25620 ft | 308 kts | 259° |
| 2026-04-29 12:47 | 63.91341 | -19.22115 | 25369 ft | 307 kts | 259° |
| 2026-04-29 12:47 | 63.91500 | -19.26948 | 25125 ft | 306 kts | 259° |
| 2026-04-29 12:47 | 63.91658 | -19.31757 | 24879 ft | 305 kts | 259° |
| 2026-04-29 12:48 | 63.91814 | -19.36560 | 24639 ft | 304 kts | 259° |
| 2026-04-29 12:48 | 63.91969 | -19.41347 | 24399 ft | 303 kts | 259° |
| 2026-04-29 12:48 | 63.92122 | -19.46109 | 24161 ft | 302 kts | 260° |
| 2026-04-29 12:48 | 63.92274 | -19.50857 | 23918 ft | 300 kts | 259° |
| 2026-04-29 12:49 | 63.92421 | -19.55590 | 23686 ft | 300 kts | 260° |
| 2026-04-29 12:49 | 63.92567 | -19.60303 | 23430 ft | 299 kts | 260° |
| 2026-04-29 12:49 | 63.92711 | -19.65008 | 23148 ft | 298 kts | 260° |
| 2026-04-29 12:49 | 63.92854 | -19.69693 | 22874 ft | 297 kts | 260° |
| 2026-04-29 12:50 | 63.92995 | -19.74372 | 22592 ft | 296 kts | 260° |
| 2026-04-29 12:50 | 63.93133 | -19.79030 | 22313 ft | 295 kts | 260° |
| 2026-04-29 12:50 | 63.93268 | -19.83675 | 22043 ft | 294 kts | 260° |
| 2026-04-29 12:50 | 63.93403 | -19.88304 | 21817 ft | 293 kts | 260° |
| 2026-04-29 12:51 | 63.93538 | -19.92922 | 21646 ft | 293 kts | 260° |
| 2026-04-29 12:51 | 63.93669 | -19.97527 | 21395 ft | 292 kts | 260° |
| 2026-04-29 12:51 | 63.93800 | -20.02122 | 21122 ft | 291 kts | 260° |
| 2026-04-29 12:51 | 63.93929 | -20.06716 | 20851 ft | 291 kts | 260° |
| 2026-04-29 12:52 | 63.94055 | -20.11294 | 20598 ft | 290 kts | 260° |
| 2026-04-29 12:52 | 63.94177 | -20.15875 | 20337 ft | 289 kts | 261° |
| 2026-04-29 12:52 | 63.94297 | -20.20431 | 20077 ft | 289 kts | 261° |
| 2026-04-29 12:52 | 63.94415 | -20.24987 | 19831 ft | 288 kts | 261° |
| 2026-04-29 12:53 | 63.94532 | -20.29470 | 19575 ft | 288 kts | 261° |
| 2026-04-29 12:53 | 63.94650 | -20.34005 | 19330 ft | 287 kts | 261° |
| 2026-04-29 12:53 | 63.94769 | -20.38542 | 19082 ft | 287 kts | 261° |
| 2026-04-29 12:53 | 63.94893 | -20.43066 | 18837 ft | 287 kts | 261° |
| 2026-04-29 12:54 | 63.95017 | -20.47580 | 18589 ft | 286 kts | 261° |
| 2026-04-29 12:54 | 63.95140 | -20.52096 | 18350 ft | 286 kts | 262° |
| 2026-04-29 12:54 | 63.95261 | -20.56604 | 18086 ft | 285 kts | 262° |
| 2026-04-29 12:54 | 63.95380 | -20.61102 | 17808 ft | 284 kts | 262° |
| 2026-04-29 12:55 | 63.95496 | -20.65553 | 17536 ft | 283 kts | 262° |
| 2026-04-29 12:55 | 63.95610 | -20.70039 | 17262 ft | 282 kts | 262° |
| 2026-04-29 12:55 | 63.95722 | -20.74489 | 16992 ft | 281 kts | 262° |
| 2026-04-29 12:55 | 63.95830 | -20.78917 | 16758 ft | 281 kts | 262° |
| 2026-04-29 12:56 | 63.95935 | -20.83370 | 16491 ft | 282 kts | 262° |
| 2026-04-29 12:56 | 63.96040 | -20.87821 | 16224 ft | 282 kts | 262° |
| 2026-04-29 12:56 | 63.96144 | -20.92263 | 15967 ft | 281 kts | 262° |
| 2026-04-29 12:56 | 63.96247 | -20.96691 | 15716 ft | 280 kts | 262° |
| 2026-04-29 12:57 | 63.96346 | -21.01109 | 15454 ft | 279 kts | 262° |
| 2026-04-29 12:57 | 63.96445 | -21.05509 | 15193 ft | 278 kts | 262° |
| 2026-04-29 12:57 | 63.96544 | -21.09897 | 14939 ft | 277 kts | 262° |
| 2026-04-29 12:57 | 63.96641 | -21.14262 | 14679 ft | 276 kts | 262° |
| 2026-04-29 12:58 | 63.96739 | -21.18619 | 14423 ft | 273 kts | 262° |
| 2026-04-29 12:58 | 63.96834 | -21.22890 | 14094 ft | 269 kts | 262° |
| 2026-04-29 12:58 | 63.96926 | -21.27124 | 13719 ft | 266 kts | 262° |
| 2026-04-29 12:58 | 63.97010 | -21.31321 | 13317 ft | 264 kts | 262° |
| 2026-04-29 12:59 | 63.97094 | -21.35475 | 12941 ft | 262 kts | 263° |
| 2026-04-29 12:59 | 63.97176 | -21.39593 | 12570 ft | 259 kts | 263° |
| 2026-04-29 12:59 | 63.97258 | -21.43609 | 12207 ft | 256 kts | 263° |
| 2026-04-29 12:59 | 63.97513 | -21.47672 | 11829 ft | 265 kts | 275° |
| 2026-04-29 13:00 | 63.98214 | -21.51629 | 11456 ft | 272 kts | 284° |
| 2026-04-29 13:00 | 63.99015 | -21.55522 | 11076 ft | 271 kts | 284° |
| 2026-04-29 13:00 | 63.99806 | -21.59399 | 10662 ft | 269 kts | 284° |
| 2026-04-29 13:00 | 64.00588 | -21.63269 | 10295 ft | 269 kts | 284° |
| 2026-04-29 13:01 | 64.01364 | -21.67108 | 10093 ft | 263 kts | 284° |
| 2026-04-29 13:01 | 64.02133 | -21.70932 | 10040 ft | 267 kts | 284° |
| 2026-04-29 13:01 | 64.02908 | -21.74792 | 9728 ft | 270 kts | 284° |
| 2026-04-29 13:01 | 64.03687 | -21.78672 | 9295 ft | 269 kts | 284° |
| 2026-04-29 13:02 | 64.04460 | -21.82532 | 8925 ft | 267 kts | 285° |
| 2026-04-29 13:02 | 64.05225 | -21.86380 | 8544 ft | 265 kts | 285° |
| 2026-04-29 13:02 | 64.05984 | -21.90204 | 8159 ft | 263 kts | 285° |
| 2026-04-29 13:02 | 64.06738 | -21.94010 | 7791 ft | 263 kts | 285° |
| 2026-04-29 13:03 | 64.07492 | -21.97799 | 7425 ft | 262 kts | 286° |
| 2026-04-29 13:03 | 64.08245 | -22.01579 | 7053 ft | 261 kts | 286° |
| 2026-04-29 13:03 | 64.08996 | -22.05356 | 6685 ft | 260 kts | 286° |
| 2026-04-29 13:03 | 64.09738 | -22.09121 | 6321 ft | 260 kts | 287° |
| 2026-04-29 13:04 | 64.10469 | -22.12822 | 6160 ft | 250 kts | 287° |
| 2026-04-29 13:04 | 64.11173 | -22.16372 | 6023 ft | 240 kts | 286° |
| 2026-04-29 13:04 | 64.11850 | -22.19785 | 5686 ft | 231 kts | 286° |
| 2026-04-29 13:04 | 64.12505 | -22.23122 | 5049 ft | 229 kts | 286° |
| 2026-04-29 13:05 | 64.13148 | -22.26431 | 4625 ft | 227 kts | 286° |
| 2026-04-29 13:05 | 64.13788 | -22.29738 | 4279 ft | 227 kts | 286° |
| 2026-04-29 13:05 | 64.14429 | -22.33038 | 3945 ft | 225 kts | 286° |
| 2026-04-29 13:05 | 64.15052 | -22.36223 | 3629 ft | 213 kts | 286° |
| 2026-04-29 13:06 | 64.15644 | -22.39241 | 3345 ft | 199 kts | 284° |
| 2026-04-29 13:06 | 64.15954 | -22.42205 | 3061 ft | 187 kts | 266° |
| 2026-04-29 13:06 | 64.15872 | -22.45080 | 2913 ft | 172 kts | 252° |
| 2026-04-29 13:06 | 64.15536 | -22.47522 | 2833 ft | 150 kts | 244° |
| 2026-04-29 13:07 | 64.15199 | -22.49654 | 2739 ft | 137 kts | 244° |
| 2026-04-29 13:07 | 64.14887 | -22.51628 | 2650 ft | 132 kts | 243° |
| 2026-04-29 13:07 | 64.14575 | -22.53591 | 2596 ft | 130 kts | 243° |
| 2026-04-29 13:07 | 64.14267 | -22.55535 | 2531 ft | 126 kts | 243° |
| 2026-04-29 13:08 | 64.13970 | -22.57385 | 2449 ft | 121 kts | 240° |
| 2026-04-29 13:08 | 64.13505 | -22.58936 | 2372 ft | 117 kts | 223° |
| 2026-04-29 13:08 | 64.12840 | -22.60014 | 2302 ft | 118 kts | 206° |
| 2026-04-29 13:08 | 64.12026 | -22.60291 | 2234 ft | 122 kts | 183° |
| 2026-04-29 13:09 | 64.11194 | -22.60377 | 2168 ft | 119 kts | 187° |
| 2026-04-29 13:09 | 64.10371 | -22.60447 | 2110 ft | 118 kts | 186° |
| 2026-04-29 13:09 | 64.09545 | -22.60487 | 2067 ft | 118 kts | 186° |
| 2026-04-29 13:09 | 64.08731 | -22.60509 | 2029 ft | 118 kts | 186° |
| 2026-04-29 13:10 | 64.07911 | -22.60522 | 1929 ft | 119 kts | 186° |
| 2026-04-29 13:10 | 64.07090 | -22.60529 | 1803 ft | 117 kts | 187° |
| 2026-04-29 13:10 | 64.06278 | -22.60533 | 1653 ft | 117 kts | 187° |
| 2026-04-29 13:10 | 64.05468 | -22.60536 | 1497 ft | 116 kts | 187° |
| 2026-04-29 13:11 | 64.04665 | -22.60538 | 1336 ft | 116 kts | 187° |
| 2026-04-29 13:11 | 64.03859 | -22.60539 | 1172 ft | 116 kts | 187° |
| 2026-04-29 13:11 | 64.03056 | -22.60538 | 1008 ft | 115 kts | 186° |
| 2026-04-29 13:11 | 64.02252 | -22.60528 | 823 ft | 116 kts | 185° |
| 2026-04-29 13:12 | 64.01458 | -22.60534 | 680 ft | 115 kts | 186° |
| 2026-04-29 13:12 | 64.00647 | -22.60531 | 522 ft | 116 kts | 186° |
| 2026-04-29 13:12 | 63.99843 | -22.60525 | 336 ft | 114 kts | 186° |
| 2026-04-29 13:12 | 63.99043 | -22.60535 | 202 ft | 116 kts | 184° |
| 2026-04-29 13:13 | 63.98336 | -22.60548 | 152 ft | 86 kts | 180° |
| 2026-04-29 13:13 | 63.97910 | -22.60547 | 147 ft | 32 kts | 180° |
| 2026-04-29 13:13 | 63.97718 | -22.60548 | 148 ft | 25 kts | 180° |
| 2026-04-29 13:13 | 63.97554 | -22.60548 | 148 ft | 22 kts | 181° |
| 2026-04-29 13:14 | 63.97453 | -22.60554 | 147 ft | 9 kts | 188° |
| 2026-04-29 13:14 | 63.97428 | -22.60659 | 146 ft | 10 kts | 279° |
| 2026-04-29 13:14 | 63.97448 | -22.60829 | 146 ft | 12 kts | 285° |
| 2026-04-29 13:14 | 63.97515 | -22.60943 | 146 ft | 14 kts | 358° |
| 2026-04-29 13:15 | 63.97619 | -22.60946 | 147 ft | 16 kts | 359° |
| 2026-04-29 13:15 | 63.97738 | -22.60949 | 147 ft | 18 kts | 360° |
| 2026-04-29 13:15 | 63.97868 | -22.60949 | 148 ft | 20 kts | 360° |
| 2026-04-29 13:15 | 63.98009 | -22.60949 | 149 ft | 21 kts | 360° |
| 2026-04-29 13:16 | 63.98160 | -22.60941 | 150 ft | 22 kts | 1° |
| 2026-04-29 13:16 | 63.98312 | -22.60940 | 151 ft | 22 kts | 0° |
| 2026-04-29 13:16 | 63.98448 | -22.60939 | 132 ft | 18 kts | 360° |
| 2026-04-29 13:16 | 63.98581 | -22.60941 | 155 ft | 20 kts | 359° |
| 2026-04-29 13:17 | 63.98713 | -22.60945 | 157 ft | 19 kts | 359° |
| 2026-04-29 13:17 | 63.98837 | -22.60947 | 160 ft | 16 kts | 360° |
| 2026-04-29 13:17 | 63.98939 | -22.60945 | 163 ft | 13 kts | 1° |
| 2026-04-29 13:17 | 63.99030 | -22.60944 | 164 ft | 13 kts | 360° |
| 2026-04-29 13:18 | 63.99126 | -22.60945 | 167 ft | 14 kts | 355° |
| 2026-04-29 13:18 | 63.99176 | -22.61109 | 167 ft | 14 kts | 274° |
| 2026-04-29 13:18 | 63.99172 | -22.61358 | 166 ft | 17 kts | 269° |
| 2026-04-29 13:18 | 63.99173 | -22.61615 | 165 ft | 13 kts | 270° |
| 2026-04-29 13:19 | 63.99174 | -22.61801 | 164 ft | 8 kts | 270° |
| 2026-04-29 13:19 | 63.99178 | -22.61943 | 164 ft | 10 kts | 288° |
| 2026-04-29 13:19 | 63.99250 | -22.61995 | 164 ft | 13 kts | 0° |
| 2026-04-29 13:19 | 63.99318 | -22.62009 | 165 ft | 2 kts | 312° |
| 2026-04-29 13:20 | 63.99321 | -22.62049 | 165 ft | 4 kts | 277° |
| 2026-04-29 13:20 | 63.99321 | -22.62137 | 164 ft | 6 kts | 270° |
| 2026-04-29 13:20 | 63.99322 | -22.62193 | 164 ft | 0 kts | 271° |